Time;durP1;ratioP1;P1;durP2;ratioP2;P2;SDS_P1;SDS_P2;PMS_P1;PMS_P2;Temp;Humidity;BMP_temperature;BMP_pressure;BME280_temperature;BME280_humidity;BME280_pressure;Samples;Min_cycle;Max_cycle;Signal;HPM_P1;HPM_P2
2022/07/23 00:00:48;;;;;;;2.67;0.68;;;16.30;99.90;;;;;;5042355;28;20036;-78
2022/07/23 00:03:15;;;;;;;2.55;0.80;;;16.20;99.90;;;;;;5047693;28;20348;-78
2022/07/23 00:05:42;;;;;;;1.77;0.60;;;16.20;99.90;;;;;;5044122;28;20047;-77
2022/07/23 00:08:08;;;;;;;2.08;0.82;;;16.10;99.90;;;;;;5041638;28;20040;-77
2022/07/23 00:10:34;;;;;;;2.03;0.80;;;16.00;99.90;;;;;;5075020;28;20044;-77
2022/07/23 00:13:01;;;;;;;1.10;0.60;;;16.00;99.90;;;;;;5044095;28;20036;-77
2022/07/23 00:15:27;;;;;;;2.20;0.90;;;16.00;99.90;;;;;;5061632;28;20036;-77
2022/07/23 00:17:54;;;;;;;3.20;0.70;;;15.90;99.90;;;;;;5042275;28;20032;-77
2022/07/23 00:20:20;;;;;;;2.35;1.20;;;15.90;99.90;;;;;;5042008;28;20380;-77
2022/07/23 00:22:50;;;;;;;2.35;0.73;;;15.90;99.90;;;;;;5055106;28;20036;-77
2022/07/23 00:25:17;;;;;;;3.35;0.80;;;15.80;99.90;;;;;;5041221;28;20052;-78
2022/07/23 00:27:43;;;;;;;2.33;0.80;;;15.80;99.90;;;;;;5045640;28;20040;-77
2022/07/23 00:30:11;;;;;;;1.77;0.77;;;15.70;99.90;;;;;;5058643;28;20028;-78
2022/07/23 00:32:51;;;;;;;1.48;0.70;;;15.70;99.90;;;;;;5043517;28;20020;-78
2022/07/23 00:35:21;;;;;;;2.00;0.65;;;15.70;99.90;;;;;;5041898;28;20024;-78
2022/07/23 00:37:48;;;;;;;2.40;0.85;;;15.60;99.90;;;;;;5057745;28;20040;-77
2022/07/23 00:40:14;;;;;;;1.98;0.80;;;15.60;99.90;;;;;;5059845;28;20130;-77
2022/07/23 00:42:41;;;;;;;1.50;0.80;;;15.60;99.90;;;;;;5073537;28;20056;-78
2022/07/23 00:45:08;;;;;;;0.90;0.60;;;15.50;99.90;;;;;;5056929;28;20418;-77
2022/07/23 00:47:35;;;;;;;3.25;0.80;;;15.50;99.90;;;;;;5030494;28;20040;-77
2022/07/23 00:50:03;;;;;;;1.90;0.70;;;15.40;99.90;;;;;;5050741;28;20630;-78
2022/07/23 00:52:31;;;;;;;1.67;0.75;;;15.40;99.90;;;;;;5058077;28;20025;-77
2022/07/23 00:54:58;;;;;;;1.25;0.70;;;15.40;99.90;;;;;;5041646;28;20119;-77
2022/07/23 00:57:25;;;;;;;3.38;0.90;;;15.30;99.90;;;;;;5061559;28;20036;-77
2022/07/23 00:59:51;;;;;;;1.98;0.80;;;15.30;99.90;;;;;;5025726;28;20125;-77
2022/07/23 01:02:18;;;;;;;1.58;0.57;;;15.20;99.90;;;;;;5057506;28;20039;-77
2022/07/23 01:04:45;;;;;;;2.10;0.77;;;15.20;99.90;;;;;;5054612;28;20029;-78
2022/07/23 01:07:11;;;;;;;2.55;0.77;;;15.20;99.90;;;;;;5060633;28;20502;-77
2022/07/23 01:09:38;;;;;;;1.52;1.00;;;15.10;99.90;;;;;;5058452;28;20031;-76
2022/07/23 01:12:06;;;;;;;1.25;0.80;;;15.10;99.90;;;;;;5052777;28;20032;-76
2022/07/23 01:14:32;;;;;;;2.15;0.70;;;15.10;99.90;;;;;;5028262;28;20057;-77
2022/07/23 01:16:58;;;;;;;2.85;0.70;;;15.10;99.90;;;;;;5059763;28;20036;-77
2022/07/23 01:19:25;;;;;;;3.33;1.08;;;15.00;99.90;;;;;;5037649;28;20041;-77
2022/07/23 01:21:53;;;;;;;2.65;0.70;;;15.00;99.90;;;;;;5060003;28;20039;-76
2022/07/23 01:24:20;;;;;;;1.58;0.70;;;15.00;99.90;;;;;;5043072;28;20365;-77
2022/07/23 01:27:06;;;;;;;3.20;1.00;;;15.00;99.90;;;;;;5062138;28;20055;-77
2022/07/23 01:29:35;;;;;;;1.77;0.70;;;15.00;99.90;;;;;;5044749;28;20032;-78
2022/07/23 01:32:06;;;;;;;2.50;0.70;;;14.90;99.90;;;;;;5051101;28;20487;-78
2022/07/23 01:34:33;;;;;;;2.90;1.17;;;14.90;99.90;;;;;;5041043;28;20051;-77
2022/07/23 01:36:59;;;;;;;3.05;0.70;;;14.90;99.90;;;;;;5044109;28;20037;-78
2022/07/23 01:39:26;;;;;;;1.02;0.70;;;14.80;99.90;;;;;;5041066;28;20032;-77
2022/07/23 01:41:53;;;;;;;2.60;0.70;;;14.80;99.90;;;;;;5070064;28;20025;-77
2022/07/23 01:44:21;;;;;;;2.42;1.00;;;14.80;99.90;;;;;;5056848;28;20035;-78
2022/07/23 01:46:47;;;;;;;2.33;0.90;;;14.80;99.90;;;;;;5027802;28;20041;-78
2022/07/23 01:49:15;;;;;;;1.95;0.80;;;14.70;99.90;;;;;;5058361;28;20047;-78
2022/07/23 01:52:08;;;;;;;2.50;0.80;;;14.80;99.90;;;;;;5045156;28;20041;-78
2022/07/23 01:54:44;;;;;;;1.65;0.80;;;14.80;99.90;;;;;;5056801;28;20039;-78
2022/07/23 01:57:11;;;;;;;1.10;0.60;;;14.70;99.90;;;;;;5038976;28;20035;-79
2022/07/23 01:59:39;;;;;;;1.33;0.60;;;14.70;99.90;;;;;;5041027;28;20029;-78
2022/07/23 02:02:06;;;;;;;3.35;0.63;;;14.70;99.90;;;;;;5040721;28;20024;-78
2022/07/23 02:04:36;;;;;;;3.50;0.80;;;14.70;99.90;;;;;;5022946;28;20131;-79
2022/07/23 02:07:04;;;;;;;1.75;1.10;;;14.60;99.90;;;;;;5040943;28;20506;-78
2022/07/23 02:09:30;;;;;;;2.33;1.00;;;14.60;99.90;;;;;;5062193;28;20045;-79
2022/07/23 02:11:57;;;;;;;2.03;1.00;;;14.60;99.90;;;;;;5056471;28;20024;-79
2022/07/23 02:14:25;;;;;;;1.55;0.80;;;14.60;99.90;;;;;;5011777;28;20051;-80
2022/07/23 02:16:51;;;;;;;2.42;1.00;;;14.60;99.90;;;;;;5046119;28;20051;-81
2022/07/23 02:19:18;;;;;;;2.03;0.80;;;14.50;99.90;;;;;;5028954;28;20055;-81
2022/07/23 02:21:47;;;;;;;1.95;0.85;;;14.50;99.90;;;;;;5073216;28;20040;-79
2022/07/23 02:24:13;;;;;;;1.40;0.70;;;14.50;99.90;;;;;;5044483;28;20048;-79
2022/07/23 02:26:42;;;;;;;2.22;0.85;;;14.50;99.90;;;;;;5045985;28;20047;-79
2022/07/23 02:29:09;;;;;;;2.88;1.05;;;14.50;99.90;;;;;;5058462;28;20028;-79
2022/07/23 02:31:35;;;;;;;3.22;0.90;;;14.50;99.90;;;;;;5047101;28;20032;-76
2022/07/23 02:34:02;;;;;;;2.45;0.80;;;14.40;99.90;;;;;;5062003;28;20082;-77
2022/07/23 02:36:29;;;;;;;1.58;0.70;;;14.50;99.90;;;;;;5043625;28;20031;-77
2022/07/23 02:38:56;;;;;;;3.85;1.10;;;14.40;99.90;;;;;;5047998;28;20950;-77
2022/07/23 02:41:23;;;;;;;1.25;0.95;;;14.40;99.90;;;;;;5045884;28;20401;-77
2022/07/23 02:43:49;;;;;;;4.05;0.95;;;14.40;99.90;;;;;;5045211;28;20815;-77
2022/07/23 02:46:16;;;;;;;3.55;0.70;;;14.40;99.90;;;;;;5065680;28;20408;-77
2022/07/23 02:48:43;;;;;;;3.95;0.65;;;14.40;99.90;;;;;;5046836;28;20044;-77
2022/07/23 02:51:11;;;;;;;1.60;0.70;;;14.40;99.90;;;;;;5049771;28;20024;-79
2022/07/23 02:53:42;;;;;;;2.15;0.73;;;14.30;99.90;;;;;;5060301;28;20020;-79
2022/07/23 02:56:09;;;;;;;1.60;0.80;;;14.30;99.90;;;;;;5048482;28;20024;-79
2022/07/23 02:58:36;;;;;;;1.45;0.80;;;14.30;99.90;;;;;;5059281;28;20024;-79
2022/07/23 03:01:03;;;;;;;2.67;0.77;;;14.30;99.90;;;;;;5044488;28;20431;-78
2022/07/23 03:03:29;;;;;;;2.38;1.05;;;14.30;99.90;;;;;;5043088;28;20040;-78
2022/07/23 03:05:56;;;;;;;1.52;0.70;;;14.30;99.90;;;;;;5046060;28;20024;-79
2022/07/23 03:08:24;;;;;;;1.65;0.85;;;14.30;99.90;;;;;;5047032;28;20024;-79
2022/07/23 03:10:52;;;;;;;3.38;0.85;;;14.30;99.90;;;;;;5045283;28;20039;-79
2022/07/23 03:13:19;;;;;;;1.92;0.70;;;14.30;99.90;;;;;;5060119;28;21072;-79
2022/07/23 03:15:45;;;;;;;1.20;0.77;;;14.30;99.90;;;;;;5060409;28;20020;-79
2022/07/23 03:18:11;;;;;;;1.70;0.80;;;14.30;99.90;;;;;;5041287;28;20085;-78
2022/07/23 03:20:38;;;;;;;1.08;0.63;;;14.30;99.90;;;;;;5044329;28;20032;-79
2022/07/23 03:23:05;;;;;;;2.05;0.57;;;14.30;99.90;;;;;;5045473;28;20379;-80
2022/07/23 03:25:31;;;;;;;1.17;0.50;;;14.30;99.90;;;;;;5056883;28;20059;-77
2022/07/23 03:27:58;;;;;;;1.77;0.50;;;14.30;99.90;;;;;;5060609;28;20483;-77
2022/07/23 03:30:26;;;;;;;2.92;0.70;;;14.30;99.90;;;;;;5030548;28;20020;-77
2022/07/23 03:32:53;;;;;;;1.30;0.55;;;14.30;99.90;;;;;;5058064;28;20344;-77
2022/07/23 03:35:19;;;;;;;0.95;0.50;;;14.30;99.90;;;;;;5027905;28;20036;-77
2022/07/23 03:37:58;;;;;;;1.25;0.60;;;14.30;99.90;;;;;;5031376;28;20024;-77
2022/07/23 03:40:26;;;;;;;1.10;0.50;;;14.20;99.90;;;;;;5048645;28;23290;-78
2022/07/23 03:42:52;;;;;;;1.92;0.60;;;14.30;99.90;;;;;;5033734;28;20074;-77
2022/07/23 03:45:19;;;;;;;1.20;0.52;;;14.20;99.90;;;;;;5064592;28;22283;-77
2022/07/23 03:47:45;;;;;;;1.98;0.50;;;14.20;99.90;;;;;;5058277;28;20051;-77
2022/07/23 03:50:14;;;;;;;1.38;0.60;;;14.20;99.90;;;;;;5042052;28;20399;-77
2022/07/23 03:52:42;;;;;;;1.40;0.52;;;14.20;99.90;;;;;;5042399;28;20468;-77
2022/07/23 03:55:08;;;;;;;1.65;0.60;;;14.20;99.90;;;;;;5034282;28;20502;-76
2022/07/23 03:57:39;;;;;;;1.38;0.50;;;14.20;99.90;;;;;;5056678;28;20035;-77
2022/07/23 04:00:08;;;;;;;1.50;0.60;;;14.20;99.90;;;;;;5042030;28;20023;-77
2022/07/23 04:02:40;;;;;;;2.60;1.00;;;14.20;99.90;;;;;;5060282;28;20023;-76
2022/07/23 04:05:07;;;;;;;2.08;0.82;;;14.20;99.90;;;;;;5064380;28;20017;-77
2022/07/23 04:07:36;;;;;;;1.77;0.88;;;14.20;99.90;;;;;;5047435;28;20028;-76
2022/07/23 04:10:03;;;;;;;2.30;0.80;;;14.20;99.90;;;;;;5058454;28;20112;-77
2022/07/23 04:12:30;;;;;;;2.90;0.85;;;14.20;99.90;;;;;;5062641;28;20016;-79
2022/07/23 04:14:56;;;;;;;3.17;1.10;;;14.20;99.90;;;;;;5059107;28;20023;-77
2022/07/23 04:17:23;;;;;;;2.15;0.93;;;14.20;99.90;;;;;;5030816;28;20031;-77
2022/07/23 04:19:49;;;;;;;3.22;0.63;;;14.30;99.90;;;;;;5041369;28;20741;-77
2022/07/23 04:22:19;;;;;;;1.52;0.60;;;14.30;99.90;;;;;;5061978;28;20020;-80
2022/07/23 04:24:46;;;;;;;2.08;0.60;;;14.30;99.90;;;;;;5041669;28;20033;-79
2022/07/23 04:27:13;;;;;;;1.40;0.60;;;14.30;99.90;;;;;;5044356;28;20379;-79
2022/07/23 04:29:40;;;;;;;2.17;0.88;;;14.40;99.90;;;;;;5042756;28;20507;-79
2022/07/23 04:32:06;;;;;;;2.00;0.98;;;14.40;99.90;;;;;;5047365;28;20036;-79
2022/07/23 04:34:33;;;;;;;2.75;0.68;;;14.50;99.90;;;;;;5045054;28;20032;-79
2022/07/23 04:37:00;;;;;;;2.78;0.80;;;14.50;99.90;;;;;;5045288;28;20024;-79
2022/07/23 04:39:29;;;;;;;1.13;0.65;;;14.60;99.90;;;;;;5059329;28;20032;-77
2022/07/23 04:41:55;;;;;;;2.10;0.70;;;14.70;99.90;;;;;;5018708;28;20043;-77
2022/07/23 04:44:22;;;;;;;1.90;0.80;;;14.70;99.90;;;;;;5043869;28;20032;-77
2022/07/23 04:46:49;;;;;;;2.13;0.70;;;14.80;99.90;;;;;;5024283;28;20031;-77
2022/07/23 04:49:15;;;;;;;1.45;0.80;;;14.90;99.90;;;;;;5044360;28;20612;-79
2022/07/23 04:51:42;;;;;;;1.23;0.70;;;15.00;99.90;;;;;;5078290;28;20040;-77
2022/07/23 04:54:08;;;;;;;1.73;0.85;;;15.10;99.90;;;;;;5027117;28;20036;-77
2022/07/23 04:56:35;;;;;;;2.78;0.80;;;15.20;99.90;;;;;;5041056;28;20016;-77
2022/07/23 04:59:01;;;;;;;3.47;0.70;;;15.30;99.90;;;;;;5045097;28;20028;-78
2022/07/23 05:01:28;;;;;;;3.83;0.77;;;15.40;99.90;;;;;;5062817;28;20032;-79
2022/07/23 05:03:54;;;;;;;4.47;0.60;;;15.50;99.90;;;;;;5056606;28;20532;-79
2022/07/23 05:06:21;;;;;;;2.13;0.80;;;15.60;99.90;;;;;;5043626;28;20490;-77
2022/07/23 05:08:48;;;;;;;3.00;0.68;;;15.70;99.90;;;;;;5059572;28;20042;-77
2022/07/23 05:11:15;;;;;;;3.30;0.60;;;15.80;99.90;;;;;;5043095;28;20024;-76
2022/07/23 05:13:41;;;;;;;3.10;0.68;;;15.90;99.90;;;;;;5029274;28;20471;-77
2022/07/23 05:16:09;;;;;;;1.60;0.70;;;16.00;99.90;;;;;;5045957;28;20039;-77
2022/07/23 05:18:39;;;;;;;3.20;0.60;;;16.20;99.90;;;;;;5029936;28;20032;-77
2022/07/23 05:21:06;;;;;;;1.90;0.65;;;16.30;99.90;;;;;;5040514;28;21699;-77
2022/07/23 05:23:36;;;;;;;1.52;0.60;;;16.40;99.90;;;;;;5045376;28;20025;-77
2022/07/23 05:26:03;;;;;;;1.90;0.70;;;16.50;99.90;;;;;;5058961;28;20036;-79
2022/07/23 05:28:30;;;;;;;1.25;0.60;;;16.70;99.90;;;;;;5058878;28;20033;-79
2022/07/23 05:30:57;;;;;;;1.77;0.60;;;16.80;99.90;;;;;;5043760;28;20421;-79
2022/07/23 05:33:24;;;;;;;1.48;0.70;;;16.90;99.90;;;;;;5042141;28;20024;-77
2022/07/23 05:35:50;;;;;;;1.15;0.60;;;17.00;99.90;;;;;;5037355;28;20020;-77
2022/07/23 05:38:27;;;;;;;1.33;0.52;;;17.20;99.90;;;;;;5061441;28;20027;-79
2022/07/23 05:40:56;;;;;;;0.70;0.38;;;17.30;99.90;;;;;;5048020;28;20033;-79
2022/07/23 05:43:23;;;;;;;2.10;0.40;;;17.40;99.90;;;;;;5062855;28;20476;-80
2022/07/23 05:45:49;;;;;;;1.02;0.40;;;17.50;99.90;;;;;;5044534;28;20337;-79
2022/07/23 05:48:16;;;;;;;1.83;0.65;;;17.70;99.90;;;;;;5044841;28;20028;-79
2022/07/23 05:50:53;;;;;;;2.53;0.65;;;17.80;99.90;;;;;;5045291;28;20035;-79
2022/07/23 05:53:29;;;;;;;1.25;0.70;;;17.90;99.90;;;;;;5046772;28;20021;-79
2022/07/23 05:56:18;;;;;;;1.05;0.45;;;18.00;99.90;;;;;;5048305;28;20035;-79
2022/07/23 05:58:45;;;;;;;1.20;0.60;;;18.20;99.90;;;;;;5057349;28;20016;-80
2022/07/23 06:01:13;;;;;;;4.47;0.55;;;18.30;99.90;;;;;;5062559;28;20035;-77
2022/07/23 06:03:46;;;;;;;1.13;0.50;;;18.40;99.90;;;;;;5039114;28;20040;-79
2022/07/23 06:06:12;;;;;;;1.83;0.50;;;18.60;99.90;;;;;;5030575;28;20043;-79
2022/07/23 06:08:39;;;;;;;3.15;0.70;;;18.70;99.90;;;;;;5033238;28;20036;-79
2022/07/23 06:11:08;;;;;;;1.83;0.30;;;18.80;99.90;;;;;;5033942;28;20024;-79
2022/07/23 06:13:35;;;;;;;1.08;0.40;;;18.90;99.90;;;;;;5050898;28;20028;-79
2022/07/23 06:16:02;;;;;;;2.55;0.50;;;19.10;99.90;;;;;;5061720;28;20027;-80
2022/07/23 06:18:30;;;;;;;4.00;0.32;;;19.30;99.90;;;;;;5062732;28;20436;-79
2022/07/23 06:20:56;;;;;;;2.17;0.40;;;19.70;99.90;;;;;;5019218;28;20028;-79
2022/07/23 06:23:23;;;;;;;1.42;0.40;;;20.10;99.90;;;;;;5046552;28;20024;-79
2022/07/23 06:25:49;;;;;;;2.17;0.43;;;20.30;99.90;;;;;;5077288;28;20027;-79
2022/07/23 06:28:15;;;;;;;2.00;0.52;;;20.50;99.90;;;;;;5044524;28;20036;-78
2022/07/23 06:30:42;;;;;;;0.95;0.40;;;20.60;99.90;;;;;;5048369;28;20025;-82
2022/07/23 06:33:09;;;;;;;2.22;0.30;;;20.70;99.90;;;;;;5057982;28;20033;-80
2022/07/23 06:35:35;;;;;;;1.05;0.40;;;20.60;99.90;;;;;;5078140;28;20023;-79
2022/07/23 06:38:02;;;;;;;1.38;0.40;;;20.60;99.90;;;;;;5061313;28;20024;-79
2022/07/23 06:40:29;;;;;;;3.00;0.40;;;20.60;99.90;;;;;;5057819;28;20020;-80
2022/07/23 06:42:55;;;;;;;2.08;0.35;;;20.60;99.90;;;;;;5065967;28;20020;-79
2022/07/23 06:45:23;;;;;;;3.35;0.50;;;20.70;99.90;;;;;;5045219;28;20032;-79
2022/07/23 06:47:50;;;;;;;3.92;0.60;;;21.00;99.90;;;;;;5047060;28;20020;-79
2022/07/23 06:50:16;;;;;;;2.90;0.40;;;21.30;99.90;;;;;;5045721;28;20479;-81
2022/07/23 06:52:43;;;;;;;1.80;0.40;;;21.70;99.90;;;;;;5044710;28;20025;-81
2022/07/23 06:55:10;;;;;;;4.75;0.70;;;21.90;99.90;;;;;;5025996;28;20028;-80
2022/07/23 06:57:36;;;;;;;1.40;0.30;;;22.10;99.90;;;;;;5044387;28;20368;-81
2022/07/23 07:00:04;;;;;;;2.35;0.30;;;22.20;99.90;;;;;;5042866;28;20020;-81
2022/07/23 07:02:31;;;;;;;2.72;0.50;;;22.00;99.90;;;;;;5058696;28;20047;-80
2022/07/23 07:04:57;;;;;;;3.67;0.60;;;21.70;99.90;;;;;;5061043;28;20024;-81
2022/07/23 07:07:23;;;;;;;2.30;0.60;;;21.60;99.90;;;;;;5062058;28;20574;-80
2022/07/23 07:09:50;;;;;;;3.20;0.85;;;21.50;99.90;;;;;;5057510;28;20024;-80
2022/07/23 07:12:16;;;;;;;2.28;0.70;;;21.40;99.90;;;;;;5041054;28;20740;-80
2022/07/23 07:14:43;;;;;;;0.95;0.30;;;21.50;99.90;;;;;;5075214;28;20024;-80
2022/07/23 07:17:10;;;;;;;2.15;0.40;;;21.50;99.90;;;;;;5047968;28;20032;-80
2022/07/23 07:19:39;;;;;;;1.83;0.50;;;21.70;99.90;;;;;;5028493;28;20025;-80
2022/07/23 07:22:06;;;;;;;1.00;0.40;;;21.70;99.90;;;;;;5058525;28;20475;-80
2022/07/23 07:24:33;;;;;;;2.35;0.40;;;21.80;99.90;;;;;;5042463;28;20051;-80
2022/07/23 07:26:59;;;;;;;2.50;0.60;;;22.00;99.90;;;;;;5061217;28;20038;-80
2022/07/23 07:29:26;;;;;;;1.20;0.40;;;22.10;99.90;;;;;;5043565;28;20045;-80
2022/07/23 07:31:53;;;;;;;1.77;0.60;;;22.10;99.90;;;;;;5064151;28;20036;-80
2022/07/23 07:34:19;;;;;;;2.35;1.08;;;22.10;99.90;;;;;;5063006;28;20028;-80
2022/07/23 07:36:46;;;;;;;4.55;1.27;;;22.20;99.90;;;;;;5047991;28;20012;-81
2022/07/23 07:39:12;;;;;;;1.02;0.70;;;22.20;99.90;;;;;;5042278;28;20028;-81
2022/07/23 07:41:39;;;;;;;4.30;0.80;;;22.20;99.90;;;;;;5045466;28;20039;-81
2022/07/23 07:44:05;;;;;;;1.35;0.40;;;22.20;99.60;;;;;;5073370;28;20032;-81
2022/07/23 07:46:31;;;;;;;0.88;0.40;;;22.10;99.50;;;;;;5021275;28;20029;-81
2022/07/23 07:48:58;;;;;;;0.80;0.38;;;22.20;99.60;;;;;;5061921;28;20052;-80
2022/07/23 07:51:25;;;;;;;1.45;0.38;;;22.30;99.40;;;;;;5072830;28;20024;-81
2022/07/23 07:53:52;;;;;;;3.78;1.02;;;22.20;99.40;;;;;;5071576;28;20028;-81
2022/07/23 07:56:18;;;;;;;2.67;1.02;;;22.20;99.60;;;;;;5075686;28;20043;-80
2022/07/23 07:58:45;;;;;;;4.28;1.20;;;22.30;99.50;;;;;;5042591;28;20043;-80
2022/07/23 08:01:11;;;;;;;2.63;0.80;;;22.20;99.20;;;;;;5061681;28;20032;-81
2022/07/23 08:03:37;;;;;;;3.78;0.70;;;22.30;99.00;;;;;;5061362;28;20040;-80
2022/07/23 08:06:04;;;;;;;5.10;0.40;;;22.30;99.10;;;;;;5061212;28;20028;-81
2022/07/23 08:08:30;;;;;;;3.75;0.95;;;22.50;98.90;;;;;;5077744;28;20341;-81
2022/07/23 08:10:57;;;;;;;0.73;0.40;;;22.70;98.20;;;;;;5074934;28;20028;-81
2022/07/23 08:13:23;;;;;;;1.58;0.40;;;22.80;98.10;;;;;;5060389;28;20587;-81
2022/07/23 08:15:53;;;;;;;0.95;0.30;;;23.00;97.70;;;;;;5041191;28;20036;-81
2022/07/23 08:18:19;;;;;;;0.75;0.25;;;23.10;97.60;;;;;;5045522;28;20027;-81
2022/07/23 08:20:46;;;;;;;1.33;0.30;;;23.40;97.40;;;;;;5054014;28;20039;-80
2022/07/23 08:23:12;;;;;;;1.50;0.35;;;23.50;97.00;;;;;;5076312;28;20043;-80
2022/07/23 08:25:41;;;;;;;3.08;0.40;;;23.60;96.80;;;;;;5053919;28;20040;-80
2022/07/23 08:28:10;;;;;;;1.42;0.32;;;23.70;96.30;;;;;;5077230;28;20020;-80
2022/07/23 08:30:40;;;;;;;1.60;0.52;;;23.70;96.10;;;;;;5072720;28;20032;-80
2022/07/23 08:33:15;;;;;;;7.82;0.40;;;23.90;95.70;;;;;;5044074;28;20024;-79
2022/07/23 08:35:50;;;;;;;1.95;0.60;;;23.90;95.50;;;;;;5055466;28;20052;-79
2022/07/23 08:38:19;;;;;;;1.27;0.40;;;23.90;95.20;;;;;;5047099;28;20035;-80
2022/07/23 08:40:50;;;;;;;1.02;0.40;;;24.00;95.10;;;;;;5055061;28;20032;-80
2022/07/23 08:43:20;;;;;;;1.77;0.50;;;24.10;94.80;;;;;;5073976;28;20028;-80
2022/07/23 08:45:48;;;;;;;1.55;0.30;;;24.20;94.10;;;;;;5076757;28;20028;-76
2022/07/23 08:48:20;;;;;;;2.15;0.30;;;24.10;93.70;;;;;;5075580;28;20024;-77
2022/07/23 08:50:54;;;;;;;;;;;24.10;93.70;;;;;;5056453;28;20040;-76
2022/07/23 08:53:22;;;;;;;1.45;0.40;;;24.30;93.70;;;;;;5046326;28;19911;-77
2022/07/23 08:55:50;;;;;;;1.45;0.30;;;24.40;93.20;;;;;;5077449;28;20020;-76
2022/07/23 08:58:17;;;;;;;0.60;0.30;;;24.40;92.90;;;;;;5075025;28;21231;-76
2022/07/23 09:00:46;;;;;;;0.93;0.30;;;24.40;92.90;;;;;;5057404;28;20024;-77
2022/07/23 09:03:24;;;;;;;3.33;0.30;;;24.50;93.00;;;;;;5043553;28;20032;-76
2022/07/23 09:05:52;;;;;;;1.98;0.73;;;24.70;92.90;;;;;;5073466;28;20032;-76
2022/07/23 09:08:21;;;;;;;1.92;0.30;;;24.90;92.80;;;;;;5062373;28;20033;-77
2022/07/23 09:11:01;;;;;;;2.47;0.50;;;25.00;92.10;;;;;;5071586;28;20031;-77
2022/07/23 09:13:27;;;;;;;0.90;0.40;;;25.00;92.20;;;;;;5075649;28;20443;-76
2022/07/23 09:15:56;;;;;;;1.17;0.50;;;25.10;91.80;;;;;;5061928;28;20494;-76
2022/07/23 09:18:56;;;;;;;3.30;0.47;;;25.10;91.60;;;;;;5077060;28;20020;-80
2022/07/23 09:21:28;;;;;;;1.27;0.35;;;25.10;90.90;;;;;;5037344;28;20518;-76
2022/07/23 09:24:06;;;;;;;1.58;0.40;;;25.10;91.00;;;;;;5072899;28;20102;-79
2022/07/23 09:26:51;;;;;;;0.90;0.40;;;25.00;89.70;;;;;;5070116;28;20020;-79
2022/07/23 09:29:26;;;;;;;1.98;0.60;;;25.00;90.00;;;;;;5058015;28;20518;-79
2022/07/23 09:31:55;;;;;;;1.20;0.40;;;25.00;89.90;;;;;;5058326;28;20083;-79
2022/07/23 09:34:21;;;;;;;1.13;0.30;;;25.30;89.00;;;;;;5057795;28;20031;-79
2022/07/23 09:36:49;;;;;;;0.82;0.50;;;25.30;89.10;;;;;;5075143;28;20023;-79
2022/07/23 09:39:28;;;;;;;1.27;0.75;;;25.60;89.20;;;;;;5074745;28;20028;-78
2022/07/23 09:41:55;;;;;;;1.33;0.40;;;25.80;88.80;;;;;;5057388;28;20463;-79
2022/07/23 09:44:21;;;;;;;1.60;0.30;;;25.90;88.90;;;;;;5073549;28;20032;-79
2022/07/23 09:46:50;;;;;;;1.27;0.45;;;26.10;88.60;;;;;;5077175;28;20472;-79
2022/07/23 09:49:19;;;;;;;1.63;0.20;;;26.10;86.50;;;;;;5071336;28;20538;-79
2022/07/23 09:51:55;;;;;;;0.80;0.30;;;26.20;85.70;;;;;;5071795;28;20017;-79
2022/07/23 09:54:34;;;;;;;1.60;0.40;;;26.10;85.50;;;;;;5055994;28;20028;-82
2022/07/23 09:57:13;;;;;;;4.60;0.30;;;26.00;83.30;;;;;;5048168;28;20367;-78
2022/07/23 09:59:41;;;;;;;0.30;0.20;;;26.10;83.60;;;;;;5072166;28;20028;-81
2022/07/23 10:02:09;;;;;;;0.73;0.20;;;26.20;83.90;;;;;;5054922;28;20038;-80
2022/07/23 10:04:48;;;;;;;0.43;0.20;;;26.50;83.70;;;;;;5055874;28;20024;-79
2022/07/23 10:07:27;;;;;;;1.75;0.45;;;26.50;82.80;;;;;;5029238;28;20476;-78
2022/07/23 10:10:32;;;;;;;0.82;0.28;;;26.60;81.20;;;;;;5020656;28;20052;-79
2022/07/23 10:16:05;;;;;;;1.63;0.55;;;26.80;81.00;;;;;;5046370;28;20059;-78
2022/07/23 10:18:31;;;;;;;1.63;0.40;;;26.90;81.20;;;;;;5038710;28;20479;-78
2022/07/23 10:20:59;;;;;;;1.25;0.40;;;27.10;81.00;;;;;;5059510;28;20029;-78
2022/07/23 10:23:39;;;;;;;1.63;0.40;;;27.20;80.50;;;;;;5072424;28;20024;-78
2022/07/23 10:26:11;;;;;;;0.95;0.30;;;27.30;80.40;;;;;;5055290;28;20039;-78
2022/07/23 10:29:10;;;;;;;0.73;0.30;;;27.30;79.60;;;;;;5053432;28;20016;-80
2022/07/23 10:32:04;;;;;;;1.63;0.47;;;27.40;78.90;;;;;;5072217;28;20398;-77
2022/07/23 10:34:55;;;;;;;2.20;0.57;;;27.40;75.40;;;;;;5065365;28;20379;-80
2022/07/23 10:37:36;;;;;;;1.45;0.40;;;27.30;76.20;;;;;;5057456;28;20135;-80
2022/07/23 10:40:22;;;;;;;2.55;0.40;;;27.50;76.00;;;;;;5071345;28;20016;-76
2022/07/23 10:42:51;;;;;;;1.35;0.55;;;27.70;74.50;;;;;;5042509;28;20032;-76
2022/07/23 10:45:28;;;;;;;2.15;0.50;;;27.70;74.50;;;;;;5071123;28;20028;-77
2022/07/23 10:47:56;;;;;;;2.90;0.88;;;27.70;74.50;;;;;;5078983;28;20034;-76
2022/07/23 10:50:30;;;;;;;1.98;0.60;;;27.90;74.70;;;;;;5071469;28;20035;-77
2022/07/23 10:53:08;;;;;;;0.82;0.40;;;28.10;73.50;;;;;;5059269;28;20044;-77
2022/07/23 10:55:34;;;;;;;0.85;0.40;;;28.20;72.20;;;;;;5060311;28;20036;-81
2022/07/23 10:58:03;;;;;;;1.15;0.50;;;28.50;72.60;;;;;;5049353;28;20033;-80
2022/07/23 11:00:31;;;;;;;2.60;1.20;;;28.60;72.20;;;;;;5049002;28;20028;-80
2022/07/23 11:03:00;;;;;;;3.35;1.40;;;28.90;71.70;;;;;;5042899;28;20028;-80
2022/07/23 11:05:43;;;;;;;1.52;0.60;;;29.10;69.70;;;;;;5077646;28;20029;-78
2022/07/23 11:08:14;;;;;;;1.05;0.50;;;29.20;69.20;;;;;;5049030;28;20024;-78
2022/07/23 11:10:48;;;;;;;0.93;0.50;;;29.40;69.40;;;;;;5079895;28;20055;-78
2022/07/23 11:13:38;;;;;;;0.93;0.45;;;29.80;69.30;;;;;;5081793;28;20119;-78
2022/07/23 11:16:24;;;;;;;1.15;0.47;;;30.00;68.70;;;;;;5078903;28;20051;-81
2022/07/23 11:18:58;;;;;;;1.52;0.50;;;30.10;67.90;;;;;;5079203;28;20031;-78
2022/07/23 11:21:29;;;;;;;2.38;0.50;;;29.90;67.20;;;;;;5079364;28;20043;-78
2022/07/23 11:24:10;;;;;;;0.80;0.30;;;29.50;67.50;;;;;;5076651;28;20040;-77
2022/07/23 11:26:58;;;;;;;1.77;0.88;;;29.60;66.40;;;;;;5081594;28;20448;-76
2022/07/23 11:29:27;;;;;;;1.80;0.90;;;29.70;65.70;;;;;;5046787;28;20016;-76
2022/07/23 11:31:59;;;;;;;1.20;0.50;;;29.70;65.40;;;;;;5077905;28;21424;-76
2022/07/23 11:34:31;;;;;;;;;;;30.10;66.20;;;;;;5077552;28;20020;-80
2022/07/23 11:36:59;;;;;;;1.15;0.40;;;30.50;65.60;;;;;;5063734;28;19908;-78
2022/07/23 11:39:27;;;;;;;1.45;0.50;;;31.00;64.50;;;;;;5063404;28;20035;-79
2022/07/23 11:41:56;;;;;;;1.00;0.38;;;31.20;63.70;;;;;;5051584;28;20467;-79
2022/07/23 11:44:35;;;;;;;0.80;0.40;;;31.60;63.30;;;;;;5073773;28;20499;-78
2022/07/23 11:47:07;;;;;;;1.20;0.55;;;32.20;61.30;;;;;;5078307;28;20024;-77
2022/07/23 11:49:34;;;;;;;1.30;0.50;;;32.40;59.00;;;;;;5074967;28;20118;-77
2022/07/23 11:52:07;;;;;;;0.98;0.47;;;32.30;58.40;;;;;;5045724;28;20044;-78
2022/07/23 11:54:35;;;;;;;1.30;0.43;;;32.50;58.00;;;;;;5075320;28;20032;-78
2022/07/23 11:57:02;;;;;;;1.15;0.47;;;32.80;56.90;;;;;;5059523;28;20024;-78
2022/07/23 11:59:33;;;;;;;1.33;0.50;;;33.10;57.10;;;;;;5046862;28;20041;-78
2022/07/23 12:02:04;;;;;;;1.85;0.60;;;33.70;56.00;;;;;;5062219;28;20017;-78
2022/07/23 12:04:44;;;;;;;1.40;0.50;;;34.10;55.30;;;;;;5075831;28;20028;-77
2022/07/23 12:07:34;;;;;;;1.07;0.50;;;34.50;53.30;;;;;;5061269;28;20285;-78
2022/07/23 12:10:09;;;;;;;1.05;0.45;;;34.60;52.40;;;;;;5058949;28;20040;-76
2022/07/23 12:12:41;;;;;;;8.18;7.18;;;34.20;51.90;;;;;;5079236;28;20046;-77
2022/07/23 12:15:09;;;;;;;3.90;1.85;;;34.20;52.20;;;;;;5056734;28;20028;-77
2022/07/23 12:17:37;;;;;;;1.75;0.50;;;34.40;52.00;;;;;;5062688;28;20036;-77
2022/07/23 12:20:06;;;;;;;2.78;0.63;;;34.90;51.30;;;;;;5045405;28;20036;-77
2022/07/23 12:22:39;;;;;;;0.88;0.47;;;35.20;48.90;;;;;;5046080;28;20119;-77
2022/07/23 12:25:15;;;;;;;0.77;0.50;;;35.30;49.90;;;;;;5072379;28;20033;-77
2022/07/23 12:27:42;;;;;;;1.27;0.60;;;35.80;49.40;;;;;;5065524;28;21858;-77
2022/07/23 12:30:19;;;;;;;1.00;0.50;;;35.90;48.60;;;;;;5059727;28;20025;-78
2022/07/23 12:32:47;;;;;;;1.05;0.50;;;35.80;47.80;;;;;;5075904;28;20012;-78
2022/07/23 12:35:14;;;;;;;1.15;0.50;;;35.90;48.20;;;;;;5074944;28;20035;-78
2022/07/23 12:37:43;;;;;;;2.00;0.50;;;36.40;48.70;;;;;;5071645;28;20035;-76
2022/07/23 12:40:46;;;;;;;0.82;0.40;;;36.80;47.40;;;;;;5089761;27;20028;-75
2022/07/23 12:43:24;;;;;;;1.10;0.45;;;37.40;47.10;;;;;;5043129;28;20040;-75
2022/07/23 12:45:52;;;;;;;0.68;0.47;;;37.60;46.30;;;;;;5073159;28;20030;-75
2022/07/23 12:48:53;;;;;;;1.63;0.75;;;37.80;46.00;;;;;;5056443;28;20031;-73
2022/07/23 12:51:23;;;;;;;1.40;1.20;;;37.90;46.10;;;;;;5051836;28;20028;-73
2022/07/23 12:53:53;;;;;;;1.52;0.70;;;38.10;45.50;;;;;;5053220;28;20383;-76
2022/07/23 12:56:29;;;;;;;0.70;0.40;;;38.30;44.40;;;;;;5077642;28;20025;-75
2022/07/23 12:59:16;;;;;;;1.25;0.70;;;38.30;44.60;;;;;;5074595;28;20567;-75
2022/07/23 13:01:48;;;;;;;1.02;0.60;;;38.60;44.00;;;;;;5057587;28;20051;-75
2022/07/23 13:04:18;;;;;;;1.63;0.60;;;38.70;43.60;;;;;;5055375;28;20038;-74